AHR YMBD-YPPF
Flight info
| Callsign | AHR |
|---|---|
| Flight time | 0h 21m |
| Altitude | 6500 |
| Route | MPT WRR DMW |
| Aircraft | PA60/L-VGD/A |
Departure
| Time | 2026-05-05 12:02 |
|---|---|
| Airport | Murray Bridge Airport (YMBD) |
Arrival
| Time | 2026-05-05 12:23 |
|---|---|
| Airport | Adelaide Parafield Airport (YPPF) |
| Time | Latitude | Longitude | Altitude | Speed | Heading |
|---|---|---|---|---|---|
| 2026-05-05 11:51 | -35.06433 | 139.22520 | 146 ft | 0 kts | 162° |
| 2026-05-05 11:57 | -35.06435 | 139.22521 | 151 ft | 6 kts | 162° |
| 2026-05-05 11:58 | -35.06387 | 139.22555 | 149 ft | 19 kts | 29° |
| 2026-05-05 11:58 | -35.06399 | 139.22564 | 149 ft | 14 kts | 220° |
| 2026-05-05 11:58 | -35.06501 | 139.22508 | 154 ft | 13 kts | 198° |
| 2026-05-05 11:58 | -35.06535 | 139.22557 | 153 ft | 5 kts | 114° |
| 2026-05-05 11:59 | -35.06536 | 139.22558 | 153 ft | 0 kts | 114° |
| 2026-05-05 12:00 | -35.06537 | 139.22561 | 153 ft | 3 kts | 115° |
| 2026-05-05 12:00 | -35.06598 | 139.22549 | 158 ft | 19 kts | 206° |
| 2026-05-05 12:01 | -35.06765 | 139.22451 | 168 ft | 33 kts | 207° |
| 2026-05-05 12:01 | -35.06838 | 139.22405 | 173 ft | 7 kts | 207° |
| 2026-05-05 12:01 | -35.06907 | 139.22370 | 172 ft | 11 kts | 274° |
| 2026-05-05 12:01 | -35.06868 | 139.22382 | 174 ft | 6 kts | 30° |
| 2026-05-05 12:02 | -35.06636 | 139.22526 | 160 ft | 82 kts | 25° |
| 2026-05-05 12:02 | -35.06023 | 139.22891 | 327 ft | 101 kts | 25° |
| 2026-05-05 12:02 | -35.05413 | 139.23252 | 775 ft | 93 kts | 22° |
| 2026-05-05 12:02 | -35.04751 | 139.23576 | 1202 ft | 113 kts | 19° |
| 2026-05-05 12:03 | -35.03935 | 139.23974 | 1554 ft | 137 kts | 21° |
| 2026-05-05 12:03 | -35.03060 | 139.24360 | 2248 ft | 127 kts | 11° |
| 2026-05-05 12:03 | -35.02175 | 139.24354 | 2609 ft | 136 kts | 343° |
| 2026-05-05 12:03 | -35.01388 | 139.23732 | 2667 ft | 136 kts | 316° |
| 2026-05-05 12:04 | -35.00634 | 139.23080 | 2804 ft | 131 kts | 331° |
| 2026-05-05 12:04 | -34.99861 | 139.22499 | 2911 ft | 129 kts | 324° |
| 2026-05-05 12:04 | -34.99131 | 139.21840 | 2966 ft | 133 kts | 320° |
| 2026-05-05 12:04 | -34.98406 | 139.21151 | 3014 ft | 131 kts | 321° |
| 2026-05-05 12:05 | -34.97683 | 139.20482 | 3065 ft | 128 kts | 321° |
| 2026-05-05 12:05 | -34.96994 | 139.19879 | 3244 ft | 113 kts | 326° |
| 2026-05-05 12:05 | -34.96382 | 139.19340 | 3301 ft | 112 kts | 326° |
| 2026-05-05 12:05 | -34.95651 | 139.18777 | 3071 ft | 134 kts | 326° |
| 2026-05-05 12:06 | -34.94849 | 139.18164 | 3018 ft | 137 kts | 325° |
| 2026-05-05 12:06 | -34.94073 | 139.17552 | 3098 ft | 131 kts | 328° |
| 2026-05-05 12:06 | -34.93227 | 139.17035 | 2992 ft | 140 kts | 337° |
| 2026-05-05 12:06 | -34.92304 | 139.16600 | 3054 ft | 151 kts | 338° |
| 2026-05-05 12:07 | -34.91283 | 139.16154 | 3207 ft | 166 kts | 339° |
| 2026-05-05 12:07 | -34.90140 | 139.15654 | 2903 ft | 193 kts | 337° |
| 2026-05-05 12:07 | -34.89040 | 139.14763 | 2955 ft | 187 kts | 318° |
| 2026-05-05 12:07 | -34.88117 | 139.13751 | 3100 ft | 178 kts | 315° |
| 2026-05-05 12:08 | -34.87202 | 139.12699 | 3139 ft | 180 kts | 320° |
| 2026-05-05 12:08 | -34.86190 | 139.11800 | 3295 ft | 180 kts | 323° |
| 2026-05-05 12:08 | -34.85160 | 139.10848 | 3251 ft | 190 kts | 320° |
| 2026-05-05 12:08 | -34.84119 | 139.09802 | 3110 ft | 200 kts | 318° |
| 2026-05-05 12:09 | -34.83067 | 139.08654 | 3026 ft | 202 kts | 316° |
| 2026-05-05 12:09 | -34.82002 | 139.07484 | 2837 ft | 209 kts | 317° |
| 2026-05-05 12:09 | -34.80860 | 139.06414 | 2886 ft | 203 kts | 322° |
| 2026-05-05 12:09 | -34.79716 | 139.05359 | 2732 ft | 208 kts | 320° |
| 2026-05-05 12:10 | -34.78594 | 139.04230 | 2578 ft | 212 kts | 319° |
| 2026-05-05 12:10 | -34.77606 | 139.02937 | 2640 ft | 204 kts | 308° |
| 2026-05-05 12:10 | -34.76724 | 139.01635 | 2775 ft | 196 kts | 308° |
| 2026-05-05 12:10 | -34.75873 | 139.00314 | 2689 ft | 201 kts | 306° |
| 2026-05-05 12:11 | -34.75050 | 138.98915 | 2602 ft | 204 kts | 304° |
| 2026-05-05 12:11 | -34.74273 | 138.97535 | 2698 ft | 198 kts | 303° |
| 2026-05-05 12:11 | -34.73428 | 138.96204 | 2708 ft | 196 kts | 310° |
| 2026-05-05 12:11 | -34.72506 | 138.95023 | 2577 ft | 192 kts | 312° |
| 2026-05-05 12:12 | -34.71571 | 138.93816 | 2354 ft | 198 kts | 311° |
| 2026-05-05 12:12 | -34.70926 | 138.92342 | 2119 ft | 201 kts | 281° |
| 2026-05-05 12:12 | -34.70977 | 138.90708 | 2075 ft | 178 kts | 260° |
| 2026-05-05 12:12 | -34.71194 | 138.89256 | 2122 ft | 173 kts | 259° |
| 2026-05-05 12:13 | -34.71427 | 138.87857 | 2191 ft | 166 kts | 259° |
| 2026-05-05 12:13 | -34.71563 | 138.86942 | 2166 ft | 166 kts | 260° |
| 2026-05-05 12:13 | -34.71813 | 138.85569 | 2133 ft | 166 kts | 253° |
| 2026-05-05 12:13 | -34.72180 | 138.84266 | 2120 ft | 156 kts | 250° |
| 2026-05-05 12:14 | -34.72556 | 138.83074 | 2020 ft | 151 kts | 247° |
| 2026-05-05 12:14 | -34.72999 | 138.81923 | 1906 ft | 147 kts | 246° |
| 2026-05-05 12:14 | -34.73350 | 138.80735 | 1789 ft | 152 kts | 253° |
| 2026-05-05 12:14 | -34.73655 | 138.79486 | 1949 ft | 155 kts | 254° |
| 2026-05-05 12:15 | -34.73958 | 138.78245 | 2200 ft | 156 kts | 255° |
| 2026-05-05 12:15 | -34.74249 | 138.76887 | 2092 ft | 176 kts | 255° |
| 2026-05-05 12:15 | -34.74563 | 138.75429 | 2139 ft | 180 kts | 256° |
| 2026-05-05 12:15 | -34.74867 | 138.73948 | 2187 ft | 181 kts | 255° |
| 2026-05-05 12:16 | -34.75265 | 138.72495 | 2045 ft | 182 kts | 245° |
| 2026-05-05 12:16 | -34.75865 | 138.71160 | 1730 ft | 178 kts | 240° |
| 2026-05-05 12:16 | -34.76463 | 138.69888 | 1510 ft | 171 kts | 239° |
| 2026-05-05 12:16 | -34.77042 | 138.68664 | 1448 ft | 168 kts | 242° |
| 2026-05-05 12:17 | -34.77556 | 138.67394 | 1560 ft | 165 kts | 246° |
| 2026-05-05 12:17 | -34.77933 | 138.66070 | 1530 ft | 167 kts | 256° |
| 2026-05-05 12:17 | -34.78168 | 138.64680 | 1465 ft | 170 kts | 260° |
| 2026-05-05 12:17 | -34.78443 | 138.63257 | 1407 ft | 168 kts | 246° |
| 2026-05-05 12:18 | -34.79082 | 138.62124 | 1545 ft | 165 kts | 224° |
| 2026-05-05 12:18 | -34.79982 | 138.61325 | 1697 ft | 158 kts | 202° |
| 2026-05-05 12:18 | -34.80969 | 138.61557 | 1625 ft | 153 kts | 126° |
| 2026-05-05 12:18 | -34.81004 | 138.62778 | 1558 ft | 148 kts | 76° |
| 2026-05-05 12:19 | -34.80687 | 138.63937 | 1347 ft | 140 kts | 57° |
| 2026-05-05 12:19 | -34.79903 | 138.64619 | 1114 ft | 138 kts | 28° |
| 2026-05-05 12:19 | -34.79072 | 138.65185 | 1042 ft | 142 kts | 29° |
| 2026-05-05 12:19 | -34.78105 | 138.65293 | 1010 ft | 149 kts | 335° |
| 2026-05-05 12:20 | -34.77414 | 138.64368 | 1119 ft | 151 kts | 302° |
| 2026-05-05 12:20 | -34.77186 | 138.63080 | 975 ft | 165 kts | 257° |
| 2026-05-05 12:20 | -34.77806 | 138.62028 | 1198 ft | 149 kts | 213° |
| 2026-05-05 12:20 | -34.78674 | 138.61370 | 1067 ft | 135 kts | 213° |
| 2026-05-05 12:21 | -34.79377 | 138.60733 | 792 ft | 117 kts | 218° |
| 2026-05-05 12:21 | -34.80026 | 138.60157 | 941 ft | 121 kts | 215° |
| 2026-05-05 12:21 | -34.80732 | 138.59539 | 969 ft | 125 kts | 215° |
| 2026-05-05 12:21 | -34.81494 | 138.59288 | 753 ft | 109 kts | 161° |
| 2026-05-05 12:22 | -34.81973 | 138.59867 | 629 ft | 104 kts | 118° |
| 2026-05-05 12:22 | -34.82355 | 138.60738 | 587 ft | 129 kts | 115° |
| 2026-05-05 12:22 | -34.82325 | 138.61693 | 648 ft | 110 kts | 50° |
| 2026-05-05 12:22 | -34.81731 | 138.62162 | 342 ft | 90 kts | 30° |
| 2026-05-05 12:23 | -34.81207 | 138.62503 | 257 ft | 92 kts | 28° |
| 2026-05-05 12:23 | -34.80656 | 138.62864 | 159 ft | 85 kts | 30° |
| 2026-05-05 12:23 | -34.80183 | 138.63185 | 71 ft | 62 kts | 27° |
| 2026-05-05 12:23 | -34.79905 | 138.63373 | 72 ft | 31 kts | 28° |
| 2026-05-05 12:24 | -34.79701 | 138.63504 | 67 ft | 36 kts | 28° |
| 2026-05-05 12:24 | -34.79629 | 138.63550 | 69 ft | 11 kts | 18° |
| 2026-05-05 12:24 | -34.79575 | 138.63482 | 72 ft | 0 kts | 299° |
| 2026-05-05 12:25 | -34.79566 | 138.63468 | 72 ft | 13 kts | 324° |
| 2026-05-05 12:26 | -34.79426 | 138.63543 | 68 ft | 25 kts | 25° |
| 2026-05-05 12:26 | -34.79275 | 138.63649 | 71 ft | 24 kts | 28° |
| 2026-05-05 12:26 | -34.79149 | 138.63696 | 72 ft | 16 kts | 319° |
| 2026-05-05 12:26 | -34.79068 | 138.63752 | 68 ft | 14 kts | 32° |
| 2026-05-05 12:27 | -34.78993 | 138.63808 | 70 ft | 15 kts | 36° |
| 2026-05-05 12:27 | -34.78948 | 138.63884 | 72 ft | 9 kts | 71° |
| 2026-05-05 12:27 | -34.78931 | 138.63895 | 71 ft | 0 kts | 313° |